La Bolsa, New Mexico
Current Conditions -  °F | °C
As of 11:15 AM on Friday 31 Oct 2014 (Local Time) from KLAM Reporting Station
Clear Clear  
Wind Chill: 50°   Ceiling: Unl
Heat Index: 50°   Visibility: 10mi
Dew Point: 28°   Wind: 12mph
Humidity: 43%   Direction: 200°SSW
Pressure: 30.45"   Gusts: 16mph
Location:  36.1441°N, 105.996°W
Report Text: KLAM 311715Z AUTO 20010G14KT 10SM CLR 10/M02 A3045 RMK AO2 T01001021
Loading
Personal Weather Stations






























Interactive Weather Map
Tropical Storm Tracking
New forecast layout! Learn more

10-Day Weather Forecast

Advertisements
Track Severe Weather on mobile